DW7624 Saint Petersburg FL US current weather conditions

sailwx.info

Wind from 036 at 2 knots gusting 8

Air temperature 13.9° C
Dewpoint 12.1° C

Last reported at 2019-Nov-16 23:09 UTC.
Time now 2019-Nov-16 23:52 UTC

Location: N 27°49' W 082°44'.
View on Google Maps.

See reports from other nearby stations

  
Tides and Currents Weather Stations Pressure Air Temp Water Temp Dewpoint Dewpoint Depression Visibility Wind Speed Wind Dir Waves Ship Positions
date/time (UTC)wind fromknots sea level pressurealtimeterstation pressurevisibilityair tempwater tempwave heightnotes
2019-Nov-16 23:09 036 2 gusting 8 13.9
2019-Nov-16 23:04 338 3 gusting 6 13.9
2019-Nov-16 22:59 020 5 gusting 11 13.9
2019-Nov-16 22:54 344 1 gusting 5 13.9
2019-Nov-16 22:49 024 6 gusting 10 13.9
2019-Nov-16 22:44 300 0 gusting 10 13.9
2019-Nov-16 22:39 012 4 gusting 9 13.9
2019-Nov-16 22:34 337 1 gusting 9 13.9
2019-Nov-16 22:29 320 4 gusting 10 14.4
2019-Nov-16 22:24 335 2 gusting 6 14.4
2019-Nov-16 22:19 001 4 gusting 11 14.4
2019-Nov-16 22:14 333 3 14.4
2019-Nov-16 22:09 008 4 gusting 8 14.4
2019-Nov-16 22:04 345 7 gusting 7 14.4
2019-Nov-16 21:59 077 2 gusting 9 14.4
2019-Nov-16 21:54 347 2 gusting 10 14.4
2019-Nov-16 21:49 345 2 gusting 8 14.4
2019-Nov-16 21:44 028 3 gusting 6 14.4
2019-Nov-16 21:39 048 1 gusting 4 14.4
2019-Nov-16 21:34 015 4 gusting 9 14.4
2019-Nov-16 21:29 014 4 gusting 10 14.4
2019-Nov-16 21:24 349 3 gusting 5 15.0
2019-Nov-16 21:19 006 0 gusting 6 15.0
2019-Nov-16 21:14 358 6 gusting 6 15.0
2019-Nov-16 21:09 340 7 gusting 11 15.0
2019-Nov-16 21:04 049 2 gusting 2 15.0
2019-Nov-16 20:59 044 5 gusting 5 15.0
2019-Nov-16 20:54 325 1 gusting 3 15.0
2019-Nov-16 20:49 008 6 gusting 9 15.0
2019-Nov-16 20:44 358 1 gusting 3 15.6
2019-Nov-16 20:39 340 8 gusting 8 15.6
2019-Nov-16 20:34 011 9 gusting 13 15.6
2019-Nov-16 20:29 326 3 gusting 5 15.6
2019-Nov-16 20:24 027 1 gusting 3 15.6
2019-Nov-16 20:19 003 0 gusting 4 15.6
2019-Nov-16 20:14 348 3 gusting 6 15.6
2019-Nov-16 20:09 011 4 gusting 10 15.6
2019-Nov-16 20:04 011 7 gusting 7 15.6
2019-Nov-16 19:59 015 3 gusting 6 15.6
2019-Nov-16 19:54 007 1 gusting 6 15.6
2019-Nov-16 19:49 337 1 gusting 7 15.6
2019-Nov-16 19:44 011 1 gusting 5 16.1
2019-Nov-16 19:39 044 6 gusting 6 16.1
2019-Nov-16 19:34 338 1 gusting 1 15.6
2019-Nov-16 19:29 012 6 gusting 8 16.1
2019-Nov-16 19:24 046 3 gusting 10 16.1
2019-Nov-16 19:19 342 5 gusting 7 16.1
2019-Nov-16 19:14 346 8 gusting 7 16.1
2019-Nov-16 19:09 007 4 gusting 5 16.1
2019-Nov-16 19:04 349 6 gusting 6 16.1
2019-Nov-16 18:59 325 0 gusting 2 16.1
2019-Nov-16 18:54 342 2 gusting 9 16.1
2019-Nov-16 18:49 353 10 gusting 10 16.7
2019-Nov-16 18:44 326 5 gusting 4 16.7
2019-Nov-16 18:39 352 2 gusting 5 16.7
2019-Nov-16 18:34 037 1 gusting 3 16.7
2019-Nov-16 18:29 015 3 gusting 3 16.7
2019-Nov-16 18:24 347 3 gusting 4 16.7
2019-Nov-16 18:19 002 2 gusting 9 16.7
2019-Nov-16 18:14 018 7 16.7
2019-Nov-16 18:09 301 4 gusting 6 16.7
2019-Nov-16 18:04 332 1 gusting 5 16.7
2019-Nov-16 17:59 323 3 gusting 6 16.7
2019-Nov-16 17:54 343 2 gusting 3 16.7
2019-Nov-16 17:49 312 2 gusting 5 16.7
2019-Nov-16 17:44 344 2 gusting 6 16.7
2019-Nov-16 17:39 338 6 gusting 9 16.7
2019-Nov-16 17:34 347 7 gusting 12 16.7
2019-Nov-16 17:29 335 1 gusting 5 16.7
2019-Nov-16 17:24 011 3 gusting 5 16.7
2019-Nov-16 17:19 346 6 gusting 6 16.7
2019-Nov-16 17:14 027 7 gusting 7 17.2
2019-Nov-16 17:09 329 3 gusting 3 17.2
2019-Nov-16 17:04 002 1 gusting 3 17.2
2019-Nov-16 16:59 314 1 gusting 12 16.7
2019-Nov-16 16:54 330 2 gusting 3 17.2
2019-Nov-16 16:49 320 2 gusting 2 17.2
2019-Nov-16 16:44 347 1 gusting 7 16.7
2019-Nov-16 16:39 016 6 gusting 9 17.2
2019-Nov-16 16:34 321 1 gusting 1 16.7
2019-Nov-16 16:29 323 2 gusting 5 16.7
2019-Nov-16 16:24 314 1 gusting 3 16.7
2019-Nov-16 16:14 319 2 gusting 3 16.7
2019-Nov-16 16:09 349 1 gusting 5 16.7
2019-Nov-16 16:04 004 4 gusting 6 16.1
2019-Nov-16 15:59 359 3 gusting 3 16.1
2019-Nov-16 15:54 328 1 gusting 1 16.1
2019-Nov-16 15:49 024 4 gusting 5 16.1
2019-Nov-16 15:44 013 2 gusting 5 16.1
2019-Nov-16 15:39 325 1 gusting 2 16.1
2019-Nov-16 15:34 348 1 gusting 3 15.6
2019-Nov-16 15:29 340 0 gusting 3 15.6
2019-Nov-16 15:24 356 2 gusting 6 15.6
2019-Nov-16 15:19 330 2 gusting 5 15.6
2019-Nov-16 15:14 328 3 gusting 3 15.6
2019-Nov-16 15:09 355 4 gusting 5 15.6
2019-Nov-16 15:04 342 0 gusting 4 15.6
2019-Nov-16 14:59 347 15.6
2019-Nov-16 14:54 008 0 gusting 1 15.6
2019-Nov-16 14:49 337 2 gusting 2 15.6
2019-Nov-16 14:44 354 15.6
2019-Nov-16 14:39 353 0 gusting 3 15.6
2019-Nov-16 14:34 359 1 gusting 9 16.1
2019-Nov-16 14:29 334 0 gusting 3 16.1
2019-Nov-16 14:24 354 1 gusting 1 16.1
2019-Nov-16 14:19 354 2 gusting 4 16.1
2019-Nov-16 14:14 329 16.1
2019-Nov-16 14:09 356 1 gusting 3 16.1
2019-Nov-16 14:04 329 3 gusting 4 16.1
2019-Nov-16 13:59 305 2 gusting 3 16.1
2019-Nov-16 13:54 335 1 gusting 4 16.1
2019-Nov-16 13:49 053 1 gusting 2 16.1
2019-Nov-16 13:44 331 16.7
2019-Nov-16 13:39 323 16.7
2019-Nov-16 13:34 018 2 gusting 4 16.7
2019-Nov-16 13:29 332 3 gusting 2 16.7
2019-Nov-16 13:24 358 1 gusting 4 16.7
2019-Nov-16 13:19 009 5 gusting 6 16.7
2019-Nov-16 13:14 352 1 gusting 1 16.7
2019-Nov-16 13:09 333 1 gusting 1 17.2
2019-Nov-16 13:04 328 1 gusting 2 17.2
2019-Nov-16 12:59 326 0 gusting 2 17.2
2019-Nov-16 12:54 349 4 gusting 1 17.2
2019-Nov-16 12:49 316 1 gusting 2 17.2
2019-Nov-16 12:44 339 2 gusting 2 17.2
2019-Nov-16 12:39 355 0 gusting 4 16.7
2019-Nov-16 12:34 340 0 gusting 0 17.2
2019-Nov-16 12:29 355 0 gusting 1 17.2
2019-Nov-16 12:24 317 17.2
2019-Nov-16 12:19 294 0 gusting 1 17.2
2019-Nov-16 12:14 266 17.2
2019-Nov-16 12:09 009 17.2
2019-Nov-16 12:04 291 1 gusting 5 17.2
2019-Nov-16 11:59 013 17.2
2019-Nov-16 11:54 329 3 gusting 3 17.2
2019-Nov-16 11:49 318 0 gusting 1 17.2
2019-Nov-16 11:44 328 0 gusting 2 17.2
2019-Nov-16 11:39 318 1 gusting 1 17.2
2019-Nov-16 11:34 313 2 gusting 4 17.2
2019-Nov-16 11:29 314 2 gusting 3 17.2
2019-Nov-16 11:24 357 0 gusting 2 17.2
2019-Nov-16 11:19 314 1 gusting 3 17.2
2019-Nov-16 11:14 336 1 gusting 4 17.8
2019-Nov-16 11:09 335 3 gusting 5 17.8
2019-Nov-16 11:04 321 17.8
2019-Nov-16 10:59 033 0 gusting 2 17.8
2019-Nov-16 10:54 316 1 gusting 3 17.8
2019-Nov-16 10:49 271 1 gusting 2 17.8
2019-Nov-16 10:44 320 1 gusting 2 17.8
2019-Nov-16 10:39 311 17.8
2019-Nov-16 10:34 325 2 gusting 2 17.8
2019-Nov-16 10:29 012 0 gusting 3 17.8
2019-Nov-16 10:24 288 1 gusting 3 17.8
2019-Nov-16 10:19 299 17.8
2019-Nov-16 10:14 304 0 17.8
2019-Nov-16 10:09 328 2 gusting 2 17.8
2019-Nov-16 10:04 282 17.8
2019-Nov-16 09:59 323 17.8
2019-Nov-16 09:54 328 2 gusting 2 17.8
2019-Nov-16 09:49 300 17.8
2019-Nov-16 09:44 321 3 gusting 3 17.8
2019-Nov-16 09:39 334 17.8
2019-Nov-16 09:34 308 17.8
2019-Nov-16 09:29 310 0 gusting 2 17.8
2019-Nov-16 09:24 334 0 gusting 2 17.8
2019-Nov-16 09:19 287 1 gusting 2 17.8
2019-Nov-16 09:14 326 0 gusting 0 17.8
2019-Nov-16 09:09 003 0 gusting 2 17.8
2019-Nov-16 09:04 310 1 gusting 2 17.8
2019-Nov-16 08:59 321 2 gusting 3 17.8
2019-Nov-16 08:54 300 1 gusting 1 17.8
2019-Nov-16 08:49 352 0 gusting 1 17.8
2019-Nov-16 08:44 308 0 gusting 2 17.8
2019-Nov-16 08:39 310 0 gusting 1 17.8
2019-Nov-16 08:34 338 0 gusting 1 17.2
2019-Nov-16 08:29 327 0 gusting 0 17.8
2019-Nov-16 08:24 323 17.8
2019-Nov-16 08:19 346 17.8
2019-Nov-16 08:14 330 17.8
2019-Nov-16 08:09 353 1 gusting 3 17.8
2019-Nov-16 08:04 326 17.8
2019-Nov-16 07:59 338 2 gusting 2 17.8
2019-Nov-16 07:54 346 0 gusting 1 17.8
2019-Nov-16 07:49 007 2 gusting 2 17.8
2019-Nov-16 07:44 356 0 gusting 1 17.8
2019-Nov-16 07:39 316 17.8
2019-Nov-16 07:34 321 17.8
2019-Nov-16 07:29 359 0 gusting 2 17.8
2019-Nov-16 07:24 332 1 gusting 1 17.8
2019-Nov-16 07:19 011 0 gusting 1 17.8
2019-Nov-16 07:14 320 17.8
2019-Nov-16 07:09 324 1 gusting 3 17.8
2019-Nov-16 07:04 017 0 gusting 2 17.8
2019-Nov-16 06:59 333 17.8
2019-Nov-16 06:54 356 2 gusting 3 17.8
2019-Nov-16 06:49 324 0 gusting 2 17.8
2019-Nov-16 06:44 311 17.8
2019-Nov-16 06:39 290 17.8
2019-Nov-16 06:34 002 2 gusting 3 17.8
2019-Nov-16 06:29 258 0 gusting 4 17.8
2019-Nov-16 06:24 333 0 gusting 2 17.8
2019-Nov-16 06:19 345 1 gusting 1 17.8
2019-Nov-16 06:14 307 17.8
2019-Nov-16 06:09 012 0 gusting 1 17.8
2019-Nov-16 06:04 338 1 gusting 4 17.8
2019-Nov-16 05:59 010 17.8
2019-Nov-16 05:54 332 0 gusting 6 17.8
2019-Nov-16 05:49 332 0 gusting 2 17.8
2019-Nov-16 05:44 312 17.8
2019-Nov-16 05:39 318 4 gusting 5 17.8
2019-Nov-16 05:34 322 3 gusting 4 17.8
2019-Nov-16 05:29 341 1 gusting 3 17.8
2019-Nov-16 05:24 007 17.8
2019-Nov-16 05:19 326 1 gusting 2 17.8
2019-Nov-16 05:14 319 0 gusting 2 18.3
2019-Nov-16 05:09 323 1 gusting 3 17.8
2019-Nov-16 05:04 325 0 gusting 1 17.8
2019-Nov-16 04:59 341 4 gusting 4 17.8
2019-Nov-16 04:54 359 17.8
2019-Nov-16 04:49 320 17.8
2019-Nov-16 04:44 311 17.8
2019-Nov-16 04:39 356 0 gusting 1 17.8
2019-Nov-16 04:34 295 1 gusting 4 17.8
2019-Nov-16 04:29 335 1 gusting 1 18.3
2019-Nov-16 04:24 324 0 gusting 1 18.3
2019-Nov-16 04:19 304 0 gusting 4 17.8
2019-Nov-16 04:14 321 1 gusting 3 18.3
2019-Nov-16 04:09 326 2 gusting 5 18.3
2019-Nov-16 04:04 334 1 gusting 5 18.3
2019-Nov-16 03:59 342 1 gusting 3 18.3
2019-Nov-16 03:54 349 0 gusting 2 18.3
2019-Nov-16 03:49 333 2 gusting 3 18.3
2019-Nov-16 03:44 321 0 gusting 2 18.3
2019-Nov-16 03:39 316 0 gusting 1 18.3
2019-Nov-16 03:34 290 1 gusting 2 18.3
2019-Nov-16 03:29 011 1 gusting 3 18.3
2019-Nov-16 03:24 314 0 gusting 1 18.3
2019-Nov-16 03:19 314 18.3
2019-Nov-16 03:14 326 1 gusting 1 18.3
2019-Nov-16 03:09 273 0 gusting 2 18.3
2019-Nov-16 03:04 331 1 gusting 4 18.3
2019-Nov-16 02:59 356 0 gusting 2 18.3
2019-Nov-16 02:54 349 1 gusting 3 18.3
2019-Nov-16 02:49 352 18.3
2019-Nov-16 02:44 335 0 gusting 1 18.3
2019-Nov-16 02:39 343 3 gusting 3 18.3
2019-Nov-16 02:34 313 18.3
2019-Nov-16 02:29 345 0 gusting 0 18.3
2019-Nov-16 02:24 316 1 gusting 5 18.3
2019-Nov-16 02:19 016 1 gusting 2 18.3
2019-Nov-16 02:14 259 0 18.9
2019-Nov-16 02:09 329 1 gusting 1 18.9
2019-Nov-16 02:04 326 0 gusting 3 18.9
2019-Nov-16 01:59 320 2 gusting 4 18.9
2019-Nov-16 01:54 338 3 gusting 3 18.9
2019-Nov-16 01:49 333 1 gusting 3 18.9
2019-Nov-16 01:44 315 1 gusting 2 18.9
2019-Nov-16 01:39 335 0 gusting 4 18.9
2019-Nov-16 01:34 024 3 gusting 5 18.9
2019-Nov-16 01:29 028 2 gusting 4 18.9
2019-Nov-16 01:24 352 1 gusting 3 18.9
2019-Nov-16 01:19 310 18.9
2019-Nov-16 01:14 330 0 gusting 1 18.9
2019-Nov-16 01:09 306 18.9
2019-Nov-16 01:04 340 1 gusting 4 18.9
2019-Nov-16 00:59 311 1 gusting 3 18.9
2019-Nov-16 00:54 006 0 gusting 2 18.9
2019-Nov-16 00:49 357 3 gusting 5 18.9
2019-Nov-16 00:44 016 1 gusting 6 18.9
2019-Nov-16 00:39 357 1 gusting 2 18.9
2019-Nov-16 00:34 357 18.9
2019-Nov-16 00:29 330 6 gusting 9 18.9
2019-Nov-16 00:24 022 1 gusting 2 18.9
2019-Nov-16 00:19 035 2 gusting 3 18.9
2019-Nov-16 00:14 002 4 gusting 5 18.9
2019-Nov-16 00:09 001 3 gusting 3 18.9
2019-Nov-16 00:04 325 0 gusting 2 18.9
2019-Nov-15 23:59 341 0 gusting 1 18.9
2019-Nov-15 23:54 027 1 gusting 2 18.9
2019-Nov-15 23:49 018 18.9
2019-Nov-15 23:44 331 2 gusting 4 18.9
2019-Nov-15 23:39 356 4 gusting 4 18.9
2019-Nov-15 23:34 323 5 gusting 5 18.9
2019-Nov-15 23:29 020 1 gusting 4 18.9
2019-Nov-15 23:24 001 2 gusting 4 18.9
2019-Nov-15 23:19 023 5 gusting 6 18.9
2019-Nov-15 23:14 011 18.9
2019-Nov-15 23:09 352 0 gusting 3 18.9
2019-Nov-15 23:04 003 18.9
2019-Nov-15 22:59 001 4 gusting 5 18.9
2019-Nov-15 22:54 011 1 gusting 4 18.9
2019-Nov-15 22:49 006 0 gusting 4 18.9
2019-Nov-15 22:44 001 18.9
2019-Nov-15 22:39 316 1 gusting 2 18.9
2019-Nov-15 22:34 347 4 gusting 5 18.9
2019-Nov-15 22:29 357 2 gusting 7 18.9
2019-Nov-15 22:24 018 1 gusting 3 18.9
2019-Nov-15 22:19 354 0 gusting 1 18.9
2019-Nov-15 22:14 349 3 gusting 6 18.9
2019-Nov-15 22:09 356 3 gusting 3 18.9
2019-Nov-15 22:04 355 1 gusting 3 18.9
2019-Nov-15 21:59 349 4 gusting 6 18.9
2019-Nov-15 21:54 002 2 gusting 6 19.4
2019-Nov-15 21:49 024 4 gusting 4 19.4
2019-Nov-15 21:44 341 3 gusting 3 19.4
2019-Nov-15 21:39 325 4 gusting 10 19.4
2019-Nov-15 21:34 043 3 gusting 10 19.4
2019-Nov-15 21:29 334 1 gusting 5 19.4
2019-Nov-15 21:24 054 2 gusting 8 19.4
2019-Nov-15 21:19 348 4 gusting 5 19.4
2019-Nov-15 21:14 014 1 gusting 3 19.4
2019-Nov-15 21:09 359 2 gusting 6 19.4
2019-Nov-15 21:04 305 3 gusting 12 19.4
2019-Nov-15 20:59 323 0 gusting 3 19.4
2019-Nov-15 20:54 317 3 gusting 6 20.0
2019-Nov-15 20:49 342 1 gusting 4 20.0
2019-Nov-15 20:44 306 2 gusting 5 20.0
2019-Nov-15 20:39 011 4 gusting 5 20.0
2019-Nov-15 20:34 013 0 gusting 2 20.0
2019-Nov-15 20:29 330 1 gusting 6 20.0
2019-Nov-15 20:24 059 4 gusting 4 20.0
2019-Nov-15 20:19 336 0 gusting 3 20.0
2019-Nov-15 20:14 333 1 gusting 2 20.0
2019-Nov-15 20:09 316 1 gusting 3 20.0
2019-Nov-15 20:04 330 0 gusting 1 20.0
2019-Nov-15 19:59 323 2 gusting 4 20.0
2019-Nov-15 19:54 292 0 gusting 1 20.0
2019-Nov-15 19:49 326 1 gusting 2 20.0
2019-Nov-15 19:44 335 1 gusting 2 20.0
2019-Nov-15 19:39 006 1 gusting 1 20.0
2019-Nov-15 19:34 321 0 gusting 2 20.0
2019-Nov-15 19:29 041 4 gusting 4 20.0
2019-Nov-15 19:24 328 0 gusting 2 20.0
2019-Nov-15 19:19 316 1 gusting 3 20.0
2019-Nov-15 19:14 352 0 gusting 2 20.0
2019-Nov-15 19:09 353 5 gusting 5 20.0
2019-Nov-15 19:04 336 1 gusting 2 20.0
2019-Nov-15 18:59 302 0 gusting 2 20.0
2019-Nov-15 18:54 341 1 gusting 4 20.0
2019-Nov-15 18:49 027 1 gusting 3 20.6
2019-Nov-15 18:44 306 0 gusting 2 20.6
2019-Nov-15 18:39 357 2 gusting 4 20.6
2019-Nov-15 18:34 319 2 gusting 2 20.6
2019-Nov-15 18:29 344 3 gusting 3 20.6
2019-Nov-15 18:24 357 20.6
2019-Nov-15 18:19 311 1 20.6
2019-Nov-15 18:14 311 1 20.6
2019-Nov-15 18:09 356 1 gusting 4 20.6
2019-Nov-15 18:04 326 2 gusting 3 20.6
2019-Nov-15 17:59 317 20.6
2019-Nov-15 17:54 024 20.6
2019-Nov-15 17:49 303 20.6
2019-Nov-15 17:44 318 1 gusting 2 20.6
2019-Nov-15 17:39 316 1 gusting 1 20.6
2019-Nov-15 17:34 342 0 gusting 0 20.6
2019-Nov-15 17:29 351 3 gusting 6 20.6
2019-Nov-15 17:24 345 20.6
2019-Nov-15 17:19 333 0 gusting 1 20.6
2019-Nov-15 17:14 326 20.0
2019-Nov-15 17:09 315 1 gusting 2 20.6
2019-Nov-15 17:04 312 1 gusting 3 20.6
2019-Nov-15 16:59 328 1 gusting 1 20.6
2019-Nov-15 16:54 315 20.6
2019-Nov-15 16:49 320 20.6
2019-Nov-15 16:44 338 1 gusting 2 20.6
2019-Nov-15 16:39 323 0 gusting 1 20.6
2019-Nov-15 16:34 323 1 gusting 1 20.6
2019-Nov-15 16:29 328 20.6
2019-Nov-15 16:24 307 20.6
2019-Nov-15 16:19 315 1 gusting 2 20.6
2019-Nov-15 16:14 318 2 gusting 2 20.6
2019-Nov-15 16:09 314 20.6
2019-Nov-15 16:04 277 0 gusting 0 20.6
2019-Nov-15 15:59 359 20.6
2019-Nov-15 15:54 307 20.6
2019-Nov-15 15:49 340 20.6
2019-Nov-15 15:44 315 20.6
2019-Nov-15 15:39 312 0 gusting 1 20.6
2019-Nov-15 15:34 321 1 gusting 2 20.6
2019-Nov-15 15:29 019 3 gusting 6 20.6
2019-Nov-15 15:24 347 1 gusting 3 20.6
2019-Nov-15 15:19 039 1 gusting 5 20.6
2019-Nov-15 15:14 013 2 gusting 6 20.6
2019-Nov-15 15:09 008 3 gusting 4 20.6
2019-Nov-15 15:04 354 6 gusting 6 20.6
2019-Nov-15 14:59 014 0 gusting 3 20.6
2019-Nov-15 14:54 351 1 gusting 3 20.6
2019-Nov-15 14:49 356 2 gusting 6 20.6
2019-Nov-15 14:44 351 0 gusting 4 20.0
2019-Nov-15 14:39 028 20.0
2019-Nov-15 14:34 356 2 gusting 3 20.0
2019-Nov-15 14:29 001 0 gusting 3 20.0
2019-Nov-15 14:24 010 0 gusting 1 20.0
2019-Nov-15 14:19 323 20.0
2019-Nov-15 14:14 030 20.0
2019-Nov-15 14:09 354 1 gusting 2 20.0
2019-Nov-15 14:04 329 20.0
2019-Nov-15 13:59 001 20.0
2019-Nov-15 13:54 354 20.0
2019-Nov-15 13:49 336 0 gusting 0 19.4
2019-Nov-15 13:44 042 1 gusting 1 19.4
2019-Nov-15 13:39 009 19.4
2019-Nov-15 13:34 359 0 gusting 2 19.4
2019-Nov-15 13:29 345 1 gusting 1 19.4
2019-Nov-15 13:24 024 19.4
2019-Nov-15 13:19 002 0 gusting 0 19.4
2019-Nov-15 13:14 352 19.4
2019-Nov-15 13:09 352 19.4
2019-Nov-15 13:04 342 19.4
2019-Nov-15 12:59 017 19.4
2019-Nov-15 12:54 001 0 gusting 0 19.4
2019-Nov-15 12:49 349 19.4
2019-Nov-15 12:44 359 0 gusting 1 19.4
2019-Nov-15 12:39 333 1 gusting 1 18.9
2019-Nov-15 12:34 352 2 gusting 2 18.9
2019-Nov-15 12:29 025 0 gusting 2 18.9
2019-Nov-15 12:24 021 18.9
2019-Nov-15 12:19 020 0 gusting 2 18.9
2019-Nov-15 12:14 342 3 gusting 4 18.9
2019-Nov-15 12:09 328 1 gusting 6 18.9
2019-Nov-15 12:04 001 3 gusting 6 18.9
2019-Nov-15 11:59 003 1 gusting 5 18.9
2019-Nov-15 11:54 321 1 gusting 5 18.9
2019-Nov-15 11:49 335 1 gusting 8 18.9
2019-Nov-15 11:44 036 0 gusting 6 18.9
2019-Nov-15 11:39 323 7 gusting 12 18.9
2019-Nov-15 11:34 292 1 gusting 6 19.4
2019-Nov-15 11:29 342 3 gusting 6 19.4
2019-Nov-15 11:24 347 3 gusting 5 19.4
2019-Nov-15 11:19 356 2 gusting 15 20.0
2019-Nov-15 11:14 318 3 gusting 5 21.1
2019-Nov-15 11:09 319 1 gusting 5 21.7
2019-Nov-15 11:04 104 21.7
2019-Nov-15 10:59 104 21.7
2019-Nov-15 10:54 104 21.7
2019-Nov-15 10:49 104 21.7
2019-Nov-15 10:44 104 21.7
2019-Nov-15 10:39 104 21.7
2019-Nov-15 10:34 104 21.7
2019-Nov-15 10:29 104 21.7
2019-Nov-15 10:24 104 21.7
2019-Nov-15 10:19 104 21.7
2019-Nov-15 10:14 104 21.7
2019-Nov-15 10:09 104 21.7
2019-Nov-15 10:04 104 21.7
2019-Nov-15 09:59 104 21.7
2019-Nov-15 09:54 104 21.7
2019-Nov-15 09:49 104 21.7
2019-Nov-15 09:44 104 21.7
2019-Nov-15 09:39 104 21.7
2019-Nov-15 09:34 104 21.7
2019-Nov-15 09:29 104 21.7
2019-Nov-15 09:24 104 21.7
2019-Nov-15 09:19 104 21.7
2019-Nov-15 09:14 104 21.7
2019-Nov-15 09:09 104 21.7
2019-Nov-15 09:04 104 21.7
2019-Nov-15 08:59 119 21.7
2019-Nov-15 08:54 121 21.7
2019-Nov-15 08:49 121 21.7
2019-Nov-15 08:44 121 21.7
2019-Nov-15 08:39 121 21.7
2019-Nov-15 08:34 121 21.7
2019-Nov-15 08:29 121 21.7
2019-Nov-15 08:24 098 21.7
2019-Nov-15 08:19 077 21.7
2019-Nov-15 08:14 076 21.7
2019-Nov-15 08:09 076 21.7
2019-Nov-15 08:04 127 21.7
2019-Nov-15 07:59 101 21.7
2019-Nov-15 07:54 091 21.7
2019-Nov-15 07:49 104 21.7
2019-Nov-15 07:44 104 21.7
2019-Nov-15 07:39 103 21.7
2019-Nov-15 07:34 113 21.7
2019-Nov-15 07:29 104 21.7
2019-Nov-15 07:24 146 0 gusting 2 21.7
2019-Nov-15 07:19 099 21.7
2019-Nov-15 07:14 097 0 21.7
2019-Nov-15 07:09 127 21.7
2019-Nov-15 07:04 086 21.7
2019-Nov-15 06:59 140 21.7
2019-Nov-15 06:54 115 21.7
2019-Nov-15 06:49 102 21.7
2019-Nov-15 06:44 136 21.7
2019-Nov-15 06:39 067 21.7
2019-Nov-15 06:34 107 21.7
2019-Nov-15 06:29 134 21.7
2019-Nov-15 06:24 111 0 gusting 0 21.7
2019-Nov-15 06:19 125 21.7
2019-Nov-15 06:14 130 21.7
2019-Nov-15 06:09 115 21.7
2019-Nov-15 06:04 136 21.7
2019-Nov-15 05:59 137 21.7
2019-Nov-15 05:54 126 21.7
2019-Nov-15 05:49 126 21.7
2019-Nov-15 05:44 127 21.7
2019-Nov-15 05:39 127 21.7
2019-Nov-15 05:34 139 22.2
2019-Nov-15 05:29 113 22.2
2019-Nov-15 05:24 128 22.2
2019-Nov-15 05:19 139 22.2
2019-Nov-15 05:14 129 22.2
2019-Nov-15 05:09 090 22.2
2019-Nov-15 05:04 079 22.2
2019-Nov-15 04:59 100 1 gusting 1 22.2
2019-Nov-15 04:54 128 22.2
2019-Nov-15 04:49 142 22.2
2019-Nov-15 04:44 149 22.2
2019-Nov-15 04:39 110 22.2
2019-Nov-15 04:34 080 22.2
2019-Nov-15 04:29 128 22.2
2019-Nov-15 04:24 113 22.2
2019-Nov-15 04:19 122 22.2
2019-Nov-15 04:14 102 22.2
2019-Nov-15 04:09 105 22.2
2019-Nov-15 04:04 103 21.7
2019-Nov-15 03:59 103 22.2
2019-Nov-15 03:54 120 21.7
2019-Nov-15 03:49 127 21.7
2019-Nov-15 03:44 103 22.2
2019-Nov-15 03:39 107 22.2
2019-Nov-15 03:34 120 22.2
2019-Nov-15 03:29 109 22.2
2019-Nov-15 03:24 103 0 gusting 2 22.2
2019-Nov-15 03:19 133 22.2
2019-Nov-15 03:14 167 22.2
2019-Nov-15 03:09 143 22.2
2019-Nov-15 03:04 114 22.2
2019-Nov-15 02:59 115 2 gusting 3 22.2
2019-Nov-15 02:54 110 0 gusting 0 22.2
2019-Nov-15 02:49 112 22.2
2019-Nov-15 02:44 080 0 gusting 1 22.2
2019-Nov-15 02:39 122 22.2
2019-Nov-15 02:34 100 1 gusting 2 22.2
2019-Nov-15 02:29 102 21.7
2019-Nov-15 02:24 107 21.7
2019-Nov-15 02:19 117 22.2
2019-Nov-15 02:14 110 1 22.2
2019-Nov-15 02:09 091 22.2
2019-Nov-15 02:04 122 0 gusting 0 22.2
2019-Nov-15 01:59 115 0 gusting 0 22.2
2019-Nov-15 01:54 112 22.2
2019-Nov-15 01:49 104 0 gusting 1 22.2
2019-Nov-15 01:44 084 0 gusting 2 22.2
2019-Nov-15 01:39 094 22.2
2019-Nov-15 01:34 096 22.2
2019-Nov-15 01:29 103 22.2
2019-Nov-15 01:24 113 22.2
2019-Nov-15 01:19 114 22.2
2019-Nov-15 01:14 116 22.2
2019-Nov-15 01:09 103 22.2
2019-Nov-15 01:04 105 22.2
2019-Nov-15 00:59 111 22.2
2019-Nov-15 00:54 103 22.2
2019-Nov-15 00:49 104 22.2
2019-Nov-15 00:44 104 0 gusting 0 22.2
2019-Nov-15 00:39 112 22.2
2019-Nov-15 00:34 094 22.2
2019-Nov-15 00:29 102 22.2
2019-Nov-15 00:24 100 22.2
2019-Nov-15 00:19 095 22.2
2019-Nov-15 00:14 020 22.2
2019-Nov-15 00:09 020 22.2
2019-Nov-15 00:04 056 22.2
2019-Nov-14 23:59 037 22.2
2019-Nov-14 23:54 098 22.2
2019-Nov-14 23:49 089 22.2
2019-Nov-14 23:44 108 22.2
2019-Nov-14 23:39 108 22.2
2019-Nov-14 23:34 333 22.2
2019-Nov-14 23:29 084 22.2
2019-Nov-14 23:24 084 22.2
2019-Nov-14 23:19 084 22.2
2019-Nov-14 23:14 084 22.2
2019-Nov-14 23:09 084 22.2
2019-Nov-14 23:04 084 22.2